Etusivu
METAR-TAF:

METAR-TAF

Lentoasemat :

Lampedusan lentoasema

Lampedusa, Italia

Leveyspiiri: 35-30N, Pituuspiiri: 012-36E, korkeus merenpinnasta: 16 m

Tämänhetkinen sää

Tämä raportti tehtiin 42 minuuttia sitten, kello 16.50 UTC
Tuuli 10 kn kaakosta
Lämpötila 24°C
Kosteus 78%
Ilmanpaine 1017 hPa
Näkyvyys 10 km tai enemmän

METAR: LICD 181650Z AUTO 13010KT 9999 NCD 24/20 Q1017

Aika: 19:32 (17:32 UTC)

Sääennuste

Tämä raportti tehtiin 6 tuntia ja 32 minuuttia sitten, kello 11.00 UTC
Ennuste voimassa 18. päivästä klo 12 UTC - 19. päivään klo 12 UTC
Tuuli 13 kn etelästä/kaakosta
Näkyvyys 10 km tai enemmän
ei pilviä alle 1500 m:ssä eikä cumulonimbus-pilviä

TAF: LICD 181100Z 1812/1912 15013KT CAVOK

Säähavainnot ja -ennusteet yli 4000 lentoasemalta (METAR- ja TAF-raportit).

Käytössä olevat sääasemat on merkitty karttaan keltaisilla ja punaisilla pisteillä.

Aseta hiiri pisteen päälle nähdäksesi sääaseman nimen.

Klikkaa sitten nähdäksesi säähavainnot ja -ennusteet.

Kartan vaihtaminen: klikkaa mustalla rastilla varustettuja vihreitä pisteitä, niin voit zoomata sisään; viivalla varustettua vihreää pistettä, niin voit zoomata ulos tai vihreitä nuolia, niin pääset viereisille kartoille.


METAR-TAF: